Airport View

Enter AWOS ICAO identifier for current METAR.

ex. KFNL

KBKT 300355Z AUTO 20009KT 10SM BKN020 BKN028 22/22 A2949 RMK AO1 T02200220

30 Oct 2020 03:58

Frequency: 119.225

Phone: 434-292-1400

Other Area AWOS: KW81 - KW31 - KLVL - KPTB

TAF AMD KRIC 300354Z 3004/3024 03010KT P6SM -SHRA BKN007 OVC015 FM300800 34008KT P6SM SHRA OVC008 FM301200 34011KT P6SM BKN015 FM301500 33014G22KT P6SM SCT080